Time;durP1;ratioP1;P1;durP2;ratioP2;P2;SDS_P1;SDS_P2;PMS_P1;PMS_P2;Temp;Humidity;BMP_temperature;BMP_pressure;BME280_temperature;BME280_humidity;BME280_pressure;Samples;Min_cycle;Max_cycle;Signal;HPM_P1;HPM_P2
2023/12/28 00:00:50;;;;;;;18.92;10.00;;;;;;;4.50;68.05;100554.75;5049695;28;20024;-93
2023/12/28 00:03:15;;;;;;;23.65;10.35;;;;;;;4.51;68.61;100567.09;5064897;28;20039;-94
2023/12/28 00:05:41;;;;;;;22.10;11.95;;;;;;;4.56;68.51;100577.97;5049638;28;20020;-93
2023/12/28 00:08:08;;;;;;;18.92;10.77;;;;;;;4.47;68.63;100581.03;5043753;28;20020;-93
2023/12/28 00:10:36;;;;;;;20.70;12.32;;;;;;;4.30;68.78;100577.88;5028353;28;20036;-93
2023/12/28 00:13:02;;;;;;;19.08;11.50;;;;;;;4.34;68.52;100585.28;5037969;28;20505;-92
2023/12/28 00:15:27;;;;;;;19.95;10.27;;;;;;;4.47;68.86;100605.03;5043945;28;20111;-93
2023/12/28 00:17:53;;;;;;;16.17;9.95;;;;;;;4.28;68.64;100572.75;5061957;28;20029;-92
2023/12/28 00:20:18;;;;;;;31.23;16.10;;;;;;;4.18;68.79;100573.09;5044841;28;20528;-92
2023/12/28 00:22:44;;;;;;;56.80;29.50;;;;;;;4.14;68.71;100579.81;5027591;28;20033;-93
2023/12/28 00:25:10;;;;;;;61.85;32.38;;;;;;;3.95;68.75;100572.53;5061795;28;20062;-92
2023/12/28 00:27:37;;;;;;;55.67;30.40;;;;;;;4.06;69.00;100585.31;5029674;28;20021;-92
2023/12/28 00:30:04;;;;;;;57.70;28.38;;;;;;;3.94;69.14;100566.38;5044166;28;20020;-92
2023/12/28 00:32:30;;;;;;;71.40;38.13;;;;;;;3.91;68.90;100564.09;5045071;28;20024;-92
2023/12/28 00:34:58;;;;;;;55.00;31.05;;;;;;;3.86;69.36;100571.88;5027598;28;20028;-92
2023/12/28 00:37:24;;;;;;;48.58;24.63;;;;;;;3.79;69.53;100578.97;5029055;28;20082;-93
2023/12/28 00:39:53;;;;;;;36.80;22.60;;;;;;;3.65;69.77;100578.06;5026765;28;20024;-92
2023/12/28 00:42:19;;;;;;;41.78;23.90;;;;;;;3.96;69.08;100609.63;5025537;28;20039;-92
2023/12/28 00:44:45;;;;;;;62.15;31.58;;;;;;;3.88;69.05;100590.31;5032776;28;20036;-93
2023/12/28 00:47:10;;;;;;;91.68;46.72;;;;;;;3.92;70.07;100591.56;5021743;28;20020;-92
2023/12/28 00:49:36;;;;;;;68.55;35.75;;;;;;;4.04;69.56;100598.00;5021338;28;20484;-92
2023/12/28 00:52:02;;;;;;;31.73;17.02;;;;;;;4.12;70.43;100595.19;5020599;28;20575;-92
2023/12/28 00:54:29;;;;;;;25.23;13.10;;;;;;;4.16;69.89;100595.63;5041913;28;20024;-93
2023/12/28 00:56:55;;;;;;;15.98;10.10;;;;;;;4.22;69.99;100597.50;5023832;28;20562;-93
2023/12/28 00:59:20;;;;;;;17.17;9.18;;;;;;;4.24;69.59;100593.63;5025578;28;20024;-93
2023/12/28 01:01:46;;;;;;;15.10;8.00;;;;;;;4.34;69.68;100600.47;5025534;28;20016;-92
2023/12/28 01:04:11;;;;;;;16.38;7.65;;;;;;;4.39;69.22;100598.00;5041389;28;20024;-93
2023/12/28 01:06:38;;;;;;;12.20;6.90;;;;;;;4.37;68.93;100597.38;5025402;28;20106;-91
2023/12/28 01:09:06;;;;;;;25.85;13.45;;;;;;;4.18;68.72;100591.75;5025562;28;20486;-92
2023/12/28 01:11:32;;;;;;;20.35;12.30;;;;;;;4.03;68.56;100604.38;5025625;28;20379;-92
2023/12/28 01:13:59;;;;;;;24.40;13.02;;;;;;;3.73;68.80;100575.25;5042195;28;20030;-91
2023/12/28 01:16:24;;;;;;;23.13;14.27;;;;;;;3.62;69.30;100587.25;5025320;28;20020;-92
2023/12/28 01:18:50;;;;;;;27.58;12.88;;;;;;;3.51;69.31;100571.81;5026062;28;20031;-92
2023/12/28 01:21:18;;;;;;;19.45;10.68;;;;;;;3.58;69.14;100594.00;5026985;28;20034;-92
2023/12/28 01:23:43;;;;;;;15.27;9.85;;;;;;;3.67;69.09;100600.00;5040164;28;20017;-92
2023/12/28 01:26:14;;;;;;;19.73;10.45;;;;;;;3.61;68.68;100580.31;5024925;28;20035;-92
2023/12/28 01:28:42;;;;;;;20.55;11.20;;;;;;;3.74;68.68;100600.88;5025259;28;20025;-92
2023/12/28 01:31:08;;;;;;;19.60;10.95;;;;;;;3.52;68.98;100589.44;5040709;28;20020;-92
2023/12/28 01:33:33;;;;;;;19.13;10.02;;;;;;;3.40;69.07;100583.81;5022304;28;20051;-92
2023/12/28 01:35:59;;;;;;;16.27;9.13;;;;;;;3.27;69.24;100586.34;5024642;28;20072;-92
2023/12/28 01:38:25;;;;;;;18.52;9.73;;;;;;;3.35;69.67;100604.84;5040920;28;20008;-92
2023/12/28 01:40:53;;;;;;;20.23;10.18;;;;;;;3.14;69.98;100576.41;5052032;28;20414;-92
2023/12/28 01:43:18;;;;;;;19.00;9.60;;;;;;;3.38;69.57;100607.16;5024807;28;20024;-94
2023/12/28 01:45:45;;;;;;;19.05;9.50;;;;;;;3.38;69.42;100601.81;5042980;28;20039;-93
2023/12/28 01:48:10;;;;;;;17.35;9.98;;;;;;;3.29;70.00;100596.81;5041143;28;20020;-92
2023/12/28 01:50:36;;;;;;;19.17;9.20;;;;;;;3.37;70.75;100608.13;5025567;28;20410;-92
2023/12/28 01:53:01;;;;;;;15.80;9.75;;;;;;;3.10;70.50;100580.44;5059527;28;20024;-91
2023/12/28 01:55:29;;;;;;;14.23;9.18;;;;;;;2.93;70.68;100569.22;5041187;28;20024;-93
2023/12/28 01:57:54;;;;;;;19.48;9.55;;;;;;;3.09;70.35;100588.63;5041769;28;20059;-93
2023/12/28 02:00:21;;;;;;;15.57;9.18;;;;;;;3.04;70.61;100582.03;5040743;28;20514;-93
2023/12/28 02:02:47;;;;;;;16.20;8.90;;;;;;;2.93;71.07;100584.38;5043434;28;20024;-93
2023/12/28 02:05:13;;;;;;;13.35;8.57;;;;;;;2.89;70.72;100578.59;5059756;28;20051;-94
2023/12/28 02:07:38;;;;;;;16.85;9.05;;;;;;;2.90;71.53;100590.88;5023065;28;20064;-93
2023/12/28 02:10:04;;;;;;;17.40;9.52;;;;;;;2.87;71.59;100591.25;5040892;28;20028;-92
2023/12/28 02:12:33;;;;;;;20.00;9.40;;;;;;;2.91;71.32;100607.69;5025610;28;20450;-92
2023/12/28 02:15:02;;;;;;;20.77;10.13;;;;;;;2.82;71.11;100573.22;5040508;28;20100;-93
2023/12/28 02:17:35;;;;;;;20.38;9.90;;;;;;;2.70;71.57;100565.88;5024349;28;20115;-93
2023/12/28 02:20:01;;;;;;;14.82;8.95;;;;;;;2.67;71.40;100569.75;5039858;28;20510;-93
2023/12/28 02:22:26;;;;;;;21.40;9.32;;;;;;;2.58;71.92;100569.03;5057275;28;20020;-93
2023/12/28 02:25:07;;;;;;;21.38;10.20;;;;;;;2.64;72.00;100596.72;5039165;28;20052;-94
2023/12/28 02:27:37;;;;;;;14.15;9.18;;;;;;;2.21;71.86;100559.38;5056861;28;20479;-93
2023/12/28 02:30:02;;;;;;;19.95;8.75;;;;;;;2.45;71.92;100578.69;5024155;28;20033;-94
2023/12/28 02:32:58;;;;;;;17.48;9.18;;;;;;;2.52;71.40;100587.56;5023813;28;20495;-93
2023/12/28 02:35:29;;;;;;;14.98;8.75;;;;;;;2.44;71.43;100572.53;5041506;28;20029;-93
2023/12/28 02:37:59;;;;;;;18.30;8.82;;;;;;;2.50;71.23;100569.16;5025030;28;20391;-92
2023/12/28 02:40:25;;;;;;;17.30;8.43;;;;;;;2.48;70.93;100557.88;5024666;28;20106;-92
2023/12/28 02:42:50;;;;;;;14.27;8.82;;;;;;;2.40;70.71;100548.16;5023903;28;20405;-92
2023/12/28 02:45:17;;;;;;;14.80;9.32;;;;;;;2.48;71.06;100552.56;5023690;28;20064;-92
2023/12/28 02:47:44;;;;;;;16.77;9.38;;;;;;;2.47;71.25;100540.28;5040418;28;20031;-92
2023/12/28 02:50:09;;;;;;;22.55;9.57;;;;;;;2.38;71.61;100546.72;5023846;28;20387;-92
2023/12/28 02:52:35;;;;;;;23.00;10.18;;;;;;;2.47;71.65;100564.22;5024427;28;20032;-92
2023/12/28 02:55:00;;;;;;;15.50;9.77;;;;;;;2.27;71.09;100528.59;5025146;28;20025;-92
2023/12/28 02:57:26;;;;;;;20.92;9.60;;;;;;;2.32;71.18;100542.94;5039983;28;20032;-92
2023/12/28 02:59:52;;;;;;;17.20;9.48;;;;;;;2.57;71.19;100578.03;5024140;28;20060;-92
2023/12/28 03:02:18;;;;;;;21.25;9.27;;;;;;;2.44;70.72;100532.69;5023265;28;20071;-92
2023/12/28 03:04:44;;;;;;;19.80;10.43;;;;;;;2.46;71.98;100545.78;5025505;28;20032;-92
2023/12/28 03:07:09;;;;;;;17.48;9.63;;;;;;;2.31;71.10;100546.63;5023293;28;20024;-93
2023/12/28 03:09:35;;;;;;;15.65;9.43;;;;;;;2.37;71.33;100553.88;5042974;28;20027;-93
2023/12/28 03:12:03;;;;;;;17.50;9.50;;;;;;;2.28;71.67;100543.50;5040092;28;20024;-92
2023/12/28 03:14:29;;;;;;;19.50;9.77;;;;;;;2.40;71.85;100555.31;5020980;28;20063;-93
2023/12/28 03:16:54;;;;;;;19.58;9.63;;;;;;;2.31;71.79;100543.16;5027115;28;20028;-93
2023/12/28 03:19:23;;;;;;;16.58;9.57;;;;;;;2.21;70.95;100535.47;5025030;28;20028;-92
2023/12/28 03:21:49;;;;;;;16.75;9.75;;;;;;;2.20;71.31;100542.63;5025493;28;20032;-92
2023/12/28 03:24:14;;;;;;;15.48;10.13;;;;;;;2.20;72.08;100532.00;5024530;28;20032;-94
2023/12/28 03:26:40;;;;;;;22.48;11.15;;;;;;;2.09;71.70;100529.78;5025769;28;20031;-93
2023/12/28 03:29:08;;;;;;;17.30;10.25;;;;;;;2.16;71.63;100540.53;5036368;28;20025;-92
2023/12/28 03:31:39;;;;;;;20.92;10.90;;;;;;;2.23;71.47;100546.72;5024053;28;20059;-92
2023/12/28 03:34:04;;;;;;;19.42;10.65;;;;;;;2.33;71.41;100536.63;5040527;28;20036;-92
2023/12/28 03:36:30;;;;;;;17.70;10.13;;;;;;;2.54;71.30;100578.41;5022626;28;20050;-93
2023/12/28 03:38:55;;;;;;;20.77;9.85;;;;;;;2.44;71.07;100540.66;5023038;28;20033;-92
2023/12/28 03:41:21;;;;;;;23.70;11.07;;;;;;;2.36;71.25;100546.88;5024073;28;20036;-93
2023/12/28 03:43:47;;;;;;;18.70;10.55;;;;;;;2.27;71.47;100540.03;5023708;28;20028;-94
2023/12/28 03:46:12;;;;;;;22.20;10.48;;;;;;;2.33;72.06;100557.09;5023405;28;20114;-93
2023/12/28 03:48:38;;;;;;;16.95;9.73;;;;;;;2.15;71.69;100539.66;5030438;28;20025;-93
2023/12/28 03:51:06;;;;;;;27.20;10.38;;;;;;;2.08;71.67;100527.34;5040426;28;20059;-93
2023/12/28 03:53:32;;;;;;;17.77;9.70;;;;;;;2.18;72.17;100557.09;5040483;28;20032;-94
2023/12/28 03:56:01;;;;;;;19.65;10.50;;;;;;;2.14;72.15;100555.81;5023107;28;20036;-92
2023/12/28 03:58:26;;;;;;;15.63;9.57;;;;;;;2.09;72.04;100550.22;5023653;28;20052;-93
2023/12/28 04:00:55;;;;;;;21.85;10.07;;;;;;;2.09;71.92;100551.03;5034230;28;20025;-92
2023/12/28 04:03:20;;;;;;;21.52;10.07;;;;;;;1.97;72.08;100541.88;5026857;28;20025;-92
2023/12/28 04:05:46;;;;;;;16.80;10.48;;;;;;;1.98;72.63;100549.66;5027721;28;20114;-93
2023/12/28 04:08:15;;;;;;;23.85;12.80;;;;;;;1.86;72.83;100534.38;5025221;28;20032;-94
2023/12/28 04:10:40;;;;;;;21.92;11.70;;;;;;;2.11;72.36;100564.13;5045860;28;20546;-93
2023/12/28 04:13:06;;;;;;;23.30;12.18;;;;;;;1.97;72.46;100525.94;5047418;28;20060;-93
2023/12/28 04:15:31;;;;;;;19.67;11.73;;;;;;;2.24;71.94;100566.97;5029599;28;20040;-93
2023/12/28 04:17:57;;;;;;;22.38;11.55;;;;;;;2.05;72.48;100539.13;5045923;28;20044;-94
2023/12/28 04:20:23;;;;;;;21.75;10.80;;;;;;;2.05;72.10;100543.63;5026752;28;20078;-94
2023/12/28 04:22:49;;;;;;;24.10;12.02;;;;;;;1.95;72.43;100538.56;5043964;28;20040;-94
2023/12/28 04:25:18;;;;;;;33.53;21.45;;;;;;;2.09;72.29;100568.81;5027210;28;20040;-93
2023/12/28 04:27:43;;;;;;;39.70;26.25;;;;;;;2.07;72.04;100563.69;5026972;28;20031;-94
2023/12/28 04:30:11;;;;;;;40.70;27.17;;;;;;;1.90;72.53;100538.31;5025984;28;20107;-94
2023/12/28 04:32:40;;;;;;;23.33;12.02;;;;;;;2.00;71.88;100555.63;5023083;28;20036;-94
2023/12/28 04:35:06;;;;;;;15.02;10.07;;;;;;;1.94;71.47;100548.38;5027098;28;20024;-94
2023/12/28 04:37:40;;;;;;;27.58;11.00;;;;;;;2.00;71.63;100560.94;5027388;28;20043;-94
2023/12/28 04:40:05;;;;;;;21.48;10.05;;;;;;;1.85;71.94;100538.88;5043252;28;20044;-94
2023/12/28 04:42:31;;;;;;;13.57;8.65;;;;;;;1.87;71.47;100542.16;5042851;28;20051;-93
2023/12/28 04:44:56;;;;;;;15.43;9.27;;;;;;;1.81;71.66;100543.72;5052111;28;20032;-93
2023/12/28 04:47:22;;;;;;;17.50;8.75;;;;;;;1.71;71.38;100550.28;5026239;28;20043;-94
2023/12/28 04:49:48;;;;;;;26.08;11.55;;;;;;;1.74;71.47;100560.53;5027168;28;20058;-93
2023/12/28 04:52:13;;;;;;;19.38;11.13;;;;;;;1.50;72.06;100538.53;5026815;28;20098;-93
2023/12/28 04:54:42;;;;;;;24.25;13.32;;;;;;;1.50;71.82;100535.88;5026553;28;20033;-93
2023/12/28 04:57:10;;;;;;;32.72;17.27;;;;;;;1.49;71.84;100542.19;5026856;28;20056;-93
2023/12/28 04:59:39;;;;;;;84.93;35.90;;;;;;;1.27;72.74;100527.97;5027725;28;20052;-94
2023/12/28 05:02:06;;;;;;;33.28;18.25;;;;;;;1.41;72.27;100561.69;5042205;28;20055;-94
2023/12/28 05:04:32;;;;;;;27.55;15.65;;;;;;;1.40;72.59;100557.38;5053683;28;20478;-93
2023/12/28 05:06:57;;;;;;;21.73;11.98;;;;;;;1.24;72.83;100532.81;5028668;28;20024;-94
2023/12/28 05:09:23;;;;;;;24.55;12.73;;;;;;;1.06;73.30;100510.06;5025943;28;20032;-93
2023/12/28 05:11:48;;;;;;;21.60;11.40;;;;;;;1.24;73.59;100546.88;5026543;28;20043;-93
2023/12/28 05:14:14;;;;;;;23.13;11.90;;;;;;;1.33;73.09;100551.13;5030825;28;20039;-93
2023/12/28 05:16:40;;;;;;;23.35;11.45;;;;;;;1.19;73.11;100517.44;5028073;28;20123;-94
2023/12/28 05:19:05;;;;;;;26.27;13.43;;;;;;;1.27;73.73;100543.88;5026617;28;20041;-94
2023/12/28 05:21:31;;;;;;;25.92;12.10;;;;;;;1.26;73.16;100531.63;5028343;28;20036;-95
2023/12/28 05:23:56;;;;;;;27.25;13.45;;;;;;;1.51;72.87;100558.75;5027077;28;20044;-94
2023/12/28 05:26:23;;;;;;;38.78;19.95;;;;;;;1.51;73.21;100555.28;5028758;28;20581;-93
2023/12/28 05:28:48;;;;;;;24.77;14.18;;;;;;;1.39;72.20;100525.69;5026351;28;20099;-94
2023/12/28 05:31:17;;;;;;;22.58;12.00;;;;;;;1.45;71.85;100519.66;5028037;28;20036;-95
2023/12/28 05:33:42;;;;;;;25.00;13.48;;;;;;;1.49;71.74;100520.13;5028915;28;20029;-93
2023/12/28 05:36:08;;;;;;;23.08;13.52;;;;;;;1.63;71.91;100519.34;5031475;28;20033;-92
2023/12/28 05:38:42;;;;;;;22.33;12.15;;;;;;;1.86;71.79;100550.31;5043123;28;20036;-92
2023/12/28 05:41:11;;;;;;;27.33;12.10;;;;;;;2.05;72.40;100549.75;5019080;28;20055;-93
2023/12/28 05:43:37;;;;;;;23.52;10.98;;;;;;;2.00;72.61;100517.63;5027230;28;20025;-93
2023/12/28 05:46:03;;;;;;;17.45;11.20;;;;;;;2.12;73.63;100524.13;5026043;28;20094;-94
2023/12/28 05:48:29;;;;;;;14.77;9.77;;;;;;;2.15;73.55;100522.91;5025897;28;20025;-92
2023/12/28 05:50:54;;;;;;;19.42;9.98;;;;;;;2.17;73.52;100513.75;5026918;28;20482;-93
2023/12/28 05:53:20;;;;;;;22.75;11.88;;;;;;;2.28;72.49;100532.88;5026667;28;20016;-93
2023/12/28 05:55:45;;;;;;;17.48;10.73;;;;;;;2.33;71.95;100526.00;5026223;28;20063;-93
2023/12/28 05:58:11;;;;;;;14.10;8.60;;;;;;;2.53;72.76;100546.69;5026188;28;20047;-93
2023/12/28 06:00:38;;;;;;;15.77;10.35;;;;;;;2.52;72.83;100537.88;5025238;28;20093;-94
2023/12/28 06:03:04;;;;;;;17.60;10.70;;;;;;;2.61;71.87;100549.22;5026194;28;20517;-93
2023/12/28 06:05:30;;;;;;;21.13;10.10;;;;;;;2.49;71.45;100538.28;5026555;28;20029;-93
2023/12/28 06:07:55;;;;;;;21.08;11.60;;;;;;;2.55;70.55;100565.91;5026332;28;20025;-95
2023/12/28 06:10:21;;;;;;;24.67;14.25;;;;;;;2.28;69.85;100544.31;5026039;28;20020;-93
2023/12/28 06:12:46;;;;;;;26.77;12.50;;;;;;;2.25;70.00;100543.91;5041240;28;20028;-94
2023/12/28 06:15:12;;;;;;;22.23;12.63;;;;;;;2.27;70.32;100565.78;5025939;28;20102;-94
2023/12/28 06:17:39;;;;;;;21.17;11.70;;;;;;;1.95;70.46;100543.88;5042548;28;20024;-93
2023/12/28 06:20:08;;;;;;;32.05;13.32;;;;;;;1.95;70.79;100543.88;5025759;28;20043;-95
2023/12/28 06:22:36;;;;;;;33.70;13.20;;;;;;;2.06;70.59;100567.34;5027745;28;20036;-95
2023/12/28 06:25:03;;;;;;;20.30;11.63;;;;;;;1.91;71.31;100551.41;5027091;28;20054;-95
2023/12/28 06:27:29;;;;;;;27.17;13.27;;;;;;;1.93;71.12;100556.53;5042533;28;20047;-94
2023/12/28 06:29:57;;;;;;;23.92;13.43;;;;;;;1.93;71.60;100552.06;5042287;28;20025;-94
2023/12/28 06:32:23;;;;;;;31.05;16.35;;;;;;;2.04;71.70;100552.63;5027077;28;20029;-95
2023/12/28 06:34:48;;;;;;;22.33;12.32;;;;;;;2.00;72.12;100526.41;5027167;28;20092;-96
2023/12/28 06:37:17;;;;;;;22.60;11.60;;;;;;;2.19;71.63;100548.91;5027296;28;20534;-96
2023/12/28 06:39:42;;;;;;;25.02;12.55;;;;;;;2.15;72.17;100547.63;5026287;28;20079;-95
2023/12/28 06:42:08;;;;;;;25.92;12.23;;;;;;;2.29;71.46;100548.66;5025404;28;20036;-95
2023/12/28 06:44:36;;;;;;;30.63;15.10;;;;;;;2.39;71.29;100559.00;5026475;28;20024;-96
2023/12/28 06:47:01;;;;;;;35.30;18.90;;;;;;;2.36;70.80;100554.84;5031764;28;20036;-94
2023/12/28 06:49:27;;;;;;;28.00;14.13;;;;;;;2.54;70.59;100570.41;5042902;28;20021;-94
2023/12/28 06:51:52;;;;;;;29.60;15.65;;;;;;;2.37;70.69;100547.72;5024378;28;20025;-90
2023/12/28 06:54:21;;;;;;;51.50;22.10;;;;;;;2.54;71.01;100553.66;5026432;28;20498;-89
2023/12/28 06:56:46;;;;;;;29.83;16.20;;;;;;;2.60;70.70;100544.94;5024802;28;20031;-92
2023/12/28 06:59:12;;;;;;;33.92;17.85;;;;;;;2.60;71.00;100542.28;5041806;28;20017;-93
2023/12/28 07:01:41;;;;;;;30.80;15.48;;;;;;;2.46;72.45;100546.59;5031749;28;20028;-91
2023/12/28 07:04:06;;;;;;;35.25;17.42;;;;;;;2.53;71.38;100510.31;5030283;28;20039;-90
2023/12/28 07:06:32;;;;;;;33.75;17.85;;;;;;;2.81;71.21;100539.63;5044118;28;20032;-90
2023/12/28 07:08:57;;;;;;;25.30;16.17;;;;;;;2.73;69.89;100521.13;5042684;28;20029;-91
2023/12/28 07:11:26;;;;;;;30.05;15.77;;;;;;;2.88;70.07;100528.25;5007044;28;20063;-91
2023/12/28 07:13:52;;;;;;;26.15;15.65;;;;;;;3.10;68.75;100539.72;5025036;28;20036;-92
2023/12/28 07:16:17;;;;;;;38.83;16.95;;;;;;;3.14;68.38;100527.69;5006712;28;20024;-92
2023/12/28 07:18:43;;;;;;;29.50;16.08;;;;;;;3.25;68.14;100540.47;5006197;28;20025;-94
2023/12/28 07:21:14;;;;;;;25.85;16.05;;;;;;;3.43;66.91;100540.81;5008219;28;20090;-95
2023/12/28 07:23:40;;;;;;;30.30;17.25;;;;;;;3.69;67.10;100551.88;5009655;28;20063;-93
2023/12/28 07:26:05;;;;;;;33.80;18.45;;;;;;;3.78;66.87;100542.72;5006369;28;20467;-93
2023/12/28 07:28:31;;;;;;;34.75;18.77;;;;;;;3.69;67.21;100523.38;5023779;28;20501;-95
2023/12/28 07:30:56;;;;;;;33.60;19.73;;;;;;;3.80;66.75;100522.03;5022932;28;20063;-95
2023/12/28 07:33:25;;;;;;;49.50;27.77;;;;;;;4.05;66.47;100538.38;5008280;28;20029;-95
2023/12/28 07:35:51;;;;;;;40.00;21.40;;;;;;;4.19;66.64;100541.91;5011592;28;20048;-93
2023/12/28 07:38:20;;;;;;;35.22;19.50;;;;;;;4.32;66.17;100536.66;5026715;28;20033;-93
2023/12/28 07:40:45;;;;;;;33.70;18.40;;;;;;;4.39;65.94;100526.81;5029814;28;20033;-95
2023/12/28 07:43:14;;;;;;;39.78;19.02;;;;;;;4.28;65.84;100491.94;5046886;28;20025;-95
2023/12/28 07:45:48;;;;;;;30.90;16.55;;;;;;;4.56;65.12;100529.16;5031396;28;20041;-94
2023/12/28 07:48:34;;;;;;;21.65;13.48;;;;;;;4.71;65.50;100539.66;5046702;28;20025;-95
2023/12/28 07:51:05;;;;;;;27.15;15.07;;;;;;;4.61;64.99;100514.19;5062102;28;20048;-95
2023/12/28 07:53:33;;;;;;;29.05;17.02;;;;;;;4.65;64.58;100506.63;5013299;28;20044;-95
2023/12/28 07:56:02;;;;;;;37.22;21.70;;;;;;;4.95;65.10;100523.09;5063277;28;20519;-92
2023/12/28 07:58:29;;;;;;;27.92;16.38;;;;;;;5.06;63.83;100522.50;5006383;28;20045;-94
2023/12/28 08:00:58;;;;;;;26.85;15.15;;;;;;;5.02;63.55;100499.91;5003113;28;20020;-92
2023/12/28 08:03:27;;;;;;;29.58;15.30;;;;;;;5.29;64.13;100531.94;5009525;28;20041;-91
2023/12/28 08:05:55;;;;;;;22.05;14.02;;;;;;;5.34;64.24;100532.16;5040225;28;20493;-93
2023/12/28 08:08:29;;;;;;;31.88;16.17;;;;;;;5.45;63.68;100538.72;5041233;28;20068;-95
2023/12/28 08:14:23;;;;;;;33.83;19.75;;;;;;;5.50;63.79;100495.38;5059584;28;20070;-96
2023/12/28 08:16:55;;;;;;;31.33;17.92;;;;;;;5.61;63.58;100500.91;5026933;28;20028;-95
2023/12/28 08:19:22;;;;;;;45.38;22.80;;;;;;;5.71;63.45;100505.84;5032877;28;20037;-96
2023/12/28 08:21:47;;;;;;;35.88;19.70;;;;;;;5.77;62.84;100507.69;5050629;28;20036;-96
2023/12/28 08:24:13;;;;;;;40.45;21.52;;;;;;;5.89;62.53;100515.84;5036299;28;20101;-95
2023/12/28 08:26:38;;;;;;;39.80;21.67;;;;;;;5.92;62.59;100506.63;5048435;28;20052;-95
2023/12/28 08:29:18;;;;;;;32.83;15.65;;;;;;;6.25;61.88;100496.66;5051184;28;20060;-95
2023/12/28 08:31:45;;;;;;;19.27;11.88;;;;;;;7.35;59.27;100521.53;5062616;28;20422;-95
2023/12/28 08:34:15;;;;;;;24.48;12.48;;;;;;;7.70;57.88;100505.75;5082605;28;20032;-94
2023/12/28 08:36:43;;;;;;;22.42;10.65;;;;;;;7.72;56.92;100511.72;5062288;28;20048;-93
2023/12/28 08:39:08;;;;;;;56.80;29.67;;;;;;;7.65;57.63;100501.03;5048975;28;20604;-94
2023/12/28 08:44:56;;;;;;;18.55;10.90;;;;;;;7.55;56.70;100481.94;5080798;28;20031;-94
2023/12/28 08:47:35;;;;;;;24.88;14.10;;;;;;;7.74;57.16;100498.91;5026827;28;20024;-94
2023/12/28 08:50:01;;;;;;;22.38;13.30;;;;;;;7.83;57.39;100507.47;5030710;28;20123;-93
2023/12/28 08:52:26;;;;;;;22.85;13.35;;;;;;;7.78;57.29;100492.06;5046336;28;20063;-94
2023/12/28 08:54:57;;;;;;;31.77;17.90;;;;;;;7.65;57.44;100468.06;5029093;28;20132;-94
2023/12/28 08:57:25;;;;;;;28.42;15.35;;;;;;;7.75;58.03;100481.78;5029976;28;20044;-93
2023/12/28 08:59:50;;;;;;;33.08;15.50;;;;;;;7.82;57.58;100479.84;5029447;28;20086;-96
2023/12/28 09:02:18;;;;;;;25.65;15.32;;;;;;;7.90;57.47;100476.84;5027019;28;20025;-94
2023/12/28 09:04:49;;;;;;;26.85;14.65;;;;;;;8.00;56.98;100479.00;5029790;28;20025;-91
2023/12/28 09:07:16;;;;;;;23.80;14.75;;;;;;;8.01;56.98;100474.47;5028681;28;20130;-92
2023/12/28 09:09:42;;;;;;;25.42;15.45;;;;;;;8.13;56.97;100469.97;5028182;28;20024;-93
2023/12/28 09:12:07;;;;;;;37.42;21.10;;;;;;;8.10;57.04;100452.47;5029705;28;20127;-94
2023/12/28 09:14:33;;;;;;;27.42;15.68;;;;;;;8.19;56.54;100441.44;5027200;28;20106;-93
2023/12/28 09:17:01;;;;;;;29.38;15.35;;;;;;;8.12;56.82;100425.44;5028795;28;20540;-91
2023/12/28 09:19:27;;;;;;;44.60;15.57;;;;;;;8.20;56.89;100433.19;5062198;28;20036;-90
2023/12/28 09:21:53;;;;;;;25.58;15.68;;;;;;;8.27;56.43;100428.53;5029300;28;20032;-92
2023/12/28 09:24:18;;;;;;;36.50;20.95;;;;;;;8.47;56.49;100433.66;5049381;28;20059;-91
2023/12/28 09:26:44;;;;;;;34.05;19.17;;;;;;;8.47;55.99;100414.06;5061628;28;20032;-90
2023/12/28 09:29:12;;;;;;;32.28;18.23;;;;;;;8.54;56.45;100422.81;5046869;28;20025;-91
2023/12/28 09:31:40;;;;;;;30.38;18.27;;;;;;;8.67;56.09;100414.59;5049240;28;20060;-94
2023/12/28 09:34:05;;;;;;;29.52;17.58;;;;;;;8.73;56.49;100418.19;5052559;28;20406;-95
2023/12/28 09:36:32;;;;;;;30.73;17.35;;;;;;;8.94;55.68;100421.41;5040958;28;20027;-94
2023/12/28 09:38:57;;;;;;;33.30;19.33;;;;;;;8.96;55.73;100412.03;5051855;28;20391;-92
2023/12/28 09:41:26;;;;;;;38.72;21.60;;;;;;;9.14;55.71;100410.31;5056988;28;20032;-94
2023/12/28 09:44:15;;;;;;;39.05;20.92;;;;;;;9.24;55.76;100413.25;5035598;28;20036;-91
2023/12/28 09:46:46;;;;;;;32.85;21.23;;;;;;;9.20;55.42;100382.53;5020829;28;20466;-90
2023/12/28 09:49:12;;;;;;;37.38;20.40;;;;;;;9.38;55.04;100392.31;5048419;28;20387;-94
2023/12/28 09:51:40;;;;;;;31.40;20.52;;;;;;;9.47;54.43;100383.66;5032418;28;20032;-96
2023/12/28 09:54:06;;;;;;;37.78;22.40;;;;;;;9.56;54.17;100385.97;5034146;28;20032;-95
2023/12/28 09:56:32;;;;;;;33.63;22.45;;;;;;;9.64;54.43;100377.56;5035282;28;20017;-95
2023/12/28 09:59:01;;;;;;;40.83;23.98;;;;;;;9.68;54.08;100365.25;5047632;28;20055;-96
2023/12/28 10:04:52;;;;;;;52.07;29.20;;;;;;;10.04;54.09;100392.88;5068832;28;20063;-96
2023/12/28 10:07:34;;;;;;;48.63;28.20;;;;;;;10.15;54.03;100385.78;5035964;28;20471;-94
2023/12/28 10:10:00;;;;;;;101.40;56.05;;;;;;;10.08;53.88;100373.31;5035417;28;20059;-95
2023/12/28 10:12:28;;;;;;;76.82;46.60;;;;;;;10.20;54.03;100364.38;5030714;28;20422;-93
2023/12/28 10:14:56;;;;;;;44.10;28.85;;;;;;;10.34;52.84;100367.63;5049428;28;20037;-93
2023/12/28 10:17:22;;;;;;;96.13;49.80;;;;;;;10.42;53.46;100361.84;5045613;28;20031;-95
2023/12/28 10:20:09;;;;;;;65.15;39.78;;;;;;;10.58;52.98;100369.09;5029613;28;20052;-95
2023/12/28 10:22:49;;;;;;;54.42;30.67;;;;;;;10.56;52.89;100338.91;5039224;28;20102;-96
2023/12/28 10:25:28;;;;;;;54.97;27.92;;;;;;;10.63;52.56;100323.41;5052296;28;20033;-96
2023/12/28 10:27:53;;;;;;;51.67;26.77;;;;;;;10.71;52.54;100324.88;5054042;28;20027;-95
2023/12/28 10:30:20;;;;;;;48.45;26.85;;;;;;;10.68;52.40;100301.94;5047127;28;20481;-96
2023/12/28 10:32:48;;;;;;;38.40;23.40;;;;;;;10.78;51.86;100300.47;5048481;28;20024;-96
2023/12/28 10:35:43;;;;;;;;;;;;;;;;;;;;;
2023/12/28 10:38:11;;;;;;;41.15;19.73;;;;;;;10.84;50.99;100280.63;5038865;28;20108;-95
2023/12/28 10:40:42;;;;;;;40.35;23.75;;;;;;;10.84;51.15;100270.66;5011062;28;20029;-96
2023/12/28 10:43:11;;;;;;;33.92;21.60;;;;;;;10.87;50.51;100258.56;5012197;28;20025;-95
2023/12/28 10:45:45;;;;;;;27.05;16.38;;;;;;;11.07;50.24;100284.97;5046147;28;20012;-93
2023/12/28 10:48:11;;;;;;;34.35;16.55;;;;;;;11.09;49.27;100262.09;5052955;28;20059;-94
2023/12/28 10:50:46;;;;;;;29.63;18.88;;;;;;;11.28;49.49;100270.69;5030372;28;20059;-94
2023/12/28 10:53:38;;;;;;;36.35;21.60;;;;;;;11.25;49.21;100246.13;5030489;28;20038;-92
2023/12/28 10:56:30;;;;;;;27.08;17.92;;;;;;;11.34;48.65;100244.63;5029414;28;20025;-94
2023/12/28 10:59:28;;;;;;;25.58;16.00;;;;;;;11.45;47.96;100235.56;5035081;28;20041;-94
2023/12/28 11:01:57;;;;;;;17.98;11.88;;;;;;;11.65;45.91;100229.56;5036304;28;20031;-93
2023/12/28 11:04:34;;;;;;;17.60;11.38;;;;;;;11.74;46.28;100221.84;5035233;28;20103;-95
2023/12/28 11:07:00;;;;;;;21.40;11.57;;;;;;;11.93;45.33;100238.50;5040911;28;20064;-96
2023/12/28 11:09:28;;;;;;;18.20;8.38;;;;;;;12.04;44.65;100234.84;5006646;28;20024;-94
2023/12/28 11:11:59;;;;;;;12.63;7.97;;;;;;;12.16;44.38;100253.56;5055931;28;20422;-95
2023/12/28 11:14:27;;;;;;;16.67;7.95;;;;;;;12.12;44.29;100226.25;5046773;28;20111;-93
2023/12/28 11:17:03;;;;;;;;;;;;;;;;;;;;;
2023/12/28 11:19:32;;;;;;;11.85;7.82;;;;;;;12.33;44.35;100213.72;5048981;28;20104;-96
2023/12/28 11:21:59;;;;;;;17.73;8.50;;;;;;;12.36;44.15;100206.19;5049467;28;20027;-96
2023/12/28 11:24:46;;;;;;;19.13;10.10;;;;;;;12.61;44.33;100213.63;5036127;28;20124;-95
2023/12/28 11:27:19;;;;;;;16.00;9.45;;;;;;;12.57;44.08;100191.72;5031141;28;20021;-95
2023/12/28 11:30:03;;;;;;;13.10;8.52;;;;;;;12.66;44.52;100189.38;5040738;28;20017;-96
2023/12/28 11:32:38;;;;;;;19.98;9.50;;;;;;;12.85;43.72;100195.94;4995254;28;20038;-96
2023/12/28 11:38:29;;;;;;;12.60;8.90;;;;;;;12.92;43.41;100169.47;5015847;28;20042;-96